You are listening to:
KLOU Tower - Louisville, Kentucky, United States

KLOU 212353Z 27005KT 10SM FEW038 30/22 A2994 RMK AO2 SLP133 T03000217 10333 20300 56013

If stream does not start automatically press the play button